createdAt,value
2022-12-19T00:00:05.472Z,0.00
2022-12-19T00:01:05.428Z,0.00
2022-12-19T00:02:05.561Z,0.00
2022-12-19T00:03:05.542Z,0.00
2022-12-19T00:04:07.971Z,0.00
2022-12-19T00:05:05.380Z,0.00
2022-12-19T00:06:05.372Z,0.00
2022-12-19T00:07:05.366Z,0.00
2022-12-19T00:08:12.389Z,0.00
2022-12-19T00:09:06.360Z,0.00
2022-12-19T00:10:05.318Z,0.00
2022-12-19T00:11:05.310Z,0.00
2022-12-19T00:12:05.286Z,0.00
2022-12-19T00:13:05.299Z,0.00
2022-12-19T00:14:05.269Z,0.00
2022-12-19T00:15:05.299Z,0.00
2022-12-19T00:16:05.320Z,0.00
2022-12-19T00:17:05.216Z,0.00
2022-12-19T00:18:05.206Z,0.00
2022-12-19T00:19:05.187Z,0.00
2022-12-19T00:20:05.217Z,0.00
2022-12-19T00:21:05.200Z,0.00
2022-12-19T00:22:09.601Z,0.00
2022-12-19T00:23:06.212Z,0.00
2022-12-19T00:24:20.408Z,0.00
2022-12-19T00:25:06.162Z,0.00
2022-12-19T00:26:05.132Z,0.00
2022-12-19T00:27:05.098Z,0.00
2022-12-19T00:28:05.088Z,0.00
2022-12-19T00:29:08.620Z,0.00
2022-12-19T00:30:06.104Z,0.00
2022-12-19T00:31:05.105Z,0.00
2022-12-19T00:32:05.089Z,0.00
2022-12-19T00:33:05.042Z,0.00
2022-12-19T00:34:05.069Z,0.00
2022-12-19T00:35:05.025Z,0.00
2022-12-19T00:36:04.991Z,0.00
2022-12-19T00:37:04.990Z,0.00
2022-12-19T00:38:04.992Z,0.00
2022-12-19T00:39:07.779Z,0.00
2022-12-19T00:40:05.002Z,0.00
2022-12-19T00:41:04.971Z,0.00
2022-12-19T00:42:04.940Z,0.00
2022-12-19T00:43:04.913Z,0.00
2022-12-19T00:44:04.901Z,0.00
2022-12-19T00:45:04.924Z,0.00
2022-12-19T00:46:04.947Z,0.00
2022-12-19T00:47:04.904Z,0.00
2022-12-19T00:48:04.865Z,0.00
2022-12-19T00:49:04.882Z,0.00
2022-12-19T00:50:04.855Z,0.00
2022-12-19T00:51:04.852Z,0.00
2022-12-19T00:52:04.833Z,0.00
2022-12-19T00:53:04.816Z,0.00
2022-12-19T00:54:05.478Z,0.00
2022-12-19T00:55:05.098Z,0.00
2022-12-19T00:56:05.773Z,0.00
2022-12-19T00:57:04.772Z,0.00
2022-12-19T00:58:04.758Z,0.00
2022-12-19T00:59:04.757Z,0.00
2022-12-19T01:00:04.728Z,0.00
2022-12-19T01:01:04.895Z,0.00
2022-12-19T01:02:04.779Z,0.00
2022-12-19T01:03:05.663Z,0.00
2022-12-19T01:04:28.132Z,0.00
2022-12-19T01:05:05.675Z,0.00
2022-12-19T01:06:04.644Z,0.00
2022-12-19T01:07:04.647Z,0.00
2022-12-19T01:08:04.674Z,0.00
2022-12-19T01:09:04.627Z,0.00
2022-12-19T01:10:04.614Z,0.00
2022-12-19T01:11:04.598Z,0.00
2022-12-19T01:12:04.600Z,0.00
2022-12-19T01:13:04.565Z,0.00
2022-12-19T01:14:04.599Z,0.00
2022-12-19T01:15:05.367Z,0.00
2022-12-19T01:16:04.628Z,0.00
2022-12-19T01:17:04.519Z,0.00
2022-12-19T01:18:04.519Z,0.00
2022-12-19T01:19:04.552Z,0.00
2022-12-19T01:20:04.499Z,0.00
2022-12-19T01:21:04.468Z,0.00
2022-12-19T01:22:04.483Z,0.00
2022-12-19T01:23:04.460Z,0.00
2022-12-19T01:24:04.494Z,0.00
2022-12-19T01:25:04.495Z,0.00
2022-12-19T01:26:04.420Z,0.00
2022-12-19T01:27:04.386Z,0.00
2022-12-19T01:28:04.418Z,0.00
2022-12-19T01:29:04.374Z,0.00
2022-12-19T01:30:04.417Z,0.00
2022-12-19T01:31:04.349Z,0.00
2022-12-19T01:32:04.382Z,0.00
2022-12-19T01:33:04.342Z,0.00
2022-12-19T01:34:04.327Z,0.00
2022-12-19T01:35:04.360Z,0.00
2022-12-19T01:36:04.346Z,0.00
2022-12-19T01:37:04.275Z,0.00
2022-12-19T01:38:08.615Z,0.00
2022-12-19T01:39:04.272Z,0.00
2022-12-19T01:40:04.268Z,0.00
2022-12-19T01:41:04.273Z,0.00
2022-12-19T01:42:04.259Z,0.00
2022-12-19T01:43:04.255Z,0.00
2022-12-19T01:44:04.228Z,0.00
2022-12-19T01:45:04.232Z,0.00
2022-12-19T01:46:04.207Z,0.00
2022-12-19T01:47:04.183Z,0.00
2022-12-19T01:48:04.232Z,0.00
2022-12-19T01:49:04.141Z,0.00
2022-12-19T01:50:04.154Z,0.00
2022-12-19T01:51:04.153Z,0.00
2022-12-19T01:52:04.112Z,0.00
2022-12-19T01:53:04.102Z,0.00
2022-12-19T01:54:04.100Z,0.00
2022-12-19T01:55:04.114Z,0.00
2022-12-19T01:56:07.667Z,0.00
2022-12-19T01:57:04.011Z,0.00
2022-12-19T01:58:03.998Z,0.00
2022-12-19T01:59:05.971Z,0.00
2022-12-19T02:00:04.010Z,0.00
2022-12-19T02:01:04.051Z,0.00
2022-12-19T02:02:04.175Z,0.00
2022-12-19T02:03:03.972Z,0.00
2022-12-19T02:04:03.931Z,0.00
2022-12-19T02:05:03.963Z,0.00
2022-12-19T02:06:03.918Z,0.00
2022-12-19T02:07:06.932Z,0.00
2022-12-19T02:08:04.893Z,0.00
2022-12-19T02:09:03.885Z,0.00
2022-12-19T02:10:03.895Z,0.00
2022-12-19T02:11:03.911Z,0.00
2022-12-19T02:12:03.886Z,0.00
2022-12-19T02:13:03.863Z,0.00
2022-12-19T02:14:03.814Z,0.00
2022-12-19T02:15:03.824Z,0.00
2022-12-19T02:16:03.811Z,0.00
2022-12-19T02:17:03.819Z,0.00
2022-12-19T02:18:03.813Z,0.00
2022-12-19T02:19:03.781Z,0.00
2022-12-19T02:20:03.749Z,0.00
2022-12-19T02:21:03.789Z,0.00
2022-12-19T02:22:03.735Z,0.00
2022-12-19T02:23:03.738Z,0.00
2022-12-19T02:24:03.729Z,0.00
2022-12-19T02:25:03.753Z,0.00
2022-12-19T02:26:03.705Z,0.00
2022-12-19T02:27:03.696Z,0.00
2022-12-19T02:28:03.676Z,0.00
2022-12-19T02:29:03.686Z,0.00
2022-12-19T02:30:03.630Z,0.00
2022-12-19T02:31:16.823Z,0.00
2022-12-19T02:32:04.721Z,0.00
2022-12-19T02:33:03.608Z,0.00
2022-12-19T02:34:03.611Z,0.00
2022-12-19T02:35:03.591Z,0.00
2022-12-19T02:36:03.605Z,0.00
2022-12-19T02:37:03.593Z,0.00
2022-12-19T02:38:03.658Z,0.00
2022-12-19T02:39:03.547Z,0.00
2022-12-19T02:40:03.538Z,0.00
2022-12-19T02:41:03.545Z,0.00
2022-12-19T02:42:03.526Z,0.00
2022-12-19T02:43:03.514Z,0.00
2022-12-19T02:44:03.490Z,0.00
2022-12-19T02:45:03.478Z,0.00
2022-12-19T02:46:03.466Z,0.00
2022-12-19T02:47:03.479Z,0.00
2022-12-19T02:48:08.415Z,0.00
2022-12-19T02:49:04.470Z,0.00
2022-12-19T02:50:03.432Z,0.00
2022-12-19T02:51:03.419Z,0.00
2022-12-19T02:52:03.467Z,0.00
2022-12-19T02:53:03.396Z,0.00
2022-12-19T02:54:03.394Z,0.00
2022-12-19T02:55:03.374Z,0.00
2022-12-19T02:56:03.369Z,0.00
2022-12-19T02:57:03.364Z,0.00
2022-12-19T02:58:03.374Z,0.00
2022-12-19T02:59:03.326Z,0.00
2022-12-19T03:00:03.404Z,0.00
2022-12-19T03:01:03.363Z,0.00
2022-12-19T03:02:03.461Z,0.00
2022-12-19T03:03:03.498Z,0.00
2022-12-19T03:04:03.263Z,0.00
2022-12-19T03:05:03.291Z,0.00
2022-12-19T03:06:03.237Z,0.00
2022-12-19T03:07:03.217Z,0.00
2022-12-19T03:08:03.261Z,0.00
2022-12-19T03:09:03.234Z,0.00
2022-12-19T03:10:03.197Z,0.00
2022-12-19T03:11:03.244Z,0.00
2022-12-19T03:12:03.171Z,0.00
2022-12-19T03:13:03.170Z,0.00
2022-12-19T03:14:03.155Z,0.00
2022-12-19T03:15:03.166Z,0.00
2022-12-19T03:16:03.126Z,0.00
2022-12-19T03:17:03.205Z,0.00
2022-12-19T03:18:03.120Z,0.00
2022-12-19T03:19:03.109Z,0.00
2022-12-19T03:20:03.072Z,0.00
2022-12-19T03:21:03.068Z,0.00
2022-12-19T03:22:03.069Z,0.00
2022-12-19T03:23:03.062Z,0.00
2022-12-19T03:24:03.066Z,0.00
2022-12-19T03:25:03.020Z,0.00
2022-12-19T03:26:03.025Z,0.00
2022-12-19T03:27:02.993Z,0.00
2022-12-19T03:28:02.988Z,0.00
2022-12-19T03:29:03.018Z,0.00
2022-12-19T03:30:02.990Z,0.00
2022-12-19T03:31:03.053Z,0.00
2022-12-19T03:32:02.945Z,0.00
2022-12-19T03:33:02.936Z,0.00
2022-12-19T03:34:02.925Z,0.00
2022-12-19T03:35:02.983Z,0.00
2022-12-19T03:36:02.899Z,0.00
2022-12-19T03:37:02.984Z,0.00
2022-12-19T03:38:02.875Z,0.00
2022-12-19T03:39:02.865Z,0.00
2022-12-19T03:40:02.880Z,0.00
2022-12-19T03:41:02.823Z,0.00
2022-12-19T03:42:02.828Z,0.00
2022-12-19T03:43:02.817Z,0.00
2022-12-19T03:44:02.805Z,0.00
2022-12-19T03:45:02.828Z,0.00
2022-12-19T03:46:02.874Z,0.00
2022-12-19T03:47:02.780Z,0.00
2022-12-19T03:48:02.772Z,0.00
2022-12-19T03:49:02.741Z,0.00
2022-12-19T03:50:02.766Z,0.00
2022-12-19T03:51:02.761Z,0.00
2022-12-19T03:52:02.714Z,0.00
2022-12-19T03:53:02.706Z,0.00
2022-12-19T03:54:02.686Z,0.00
2022-12-19T03:55:02.693Z,0.00
2022-12-19T03:56:02.650Z,0.00
2022-12-19T03:57:02.671Z,0.00
2022-12-19T03:58:02.640Z,0.00
2022-12-19T03:59:02.618Z,0.00
2022-12-19T04:00:02.629Z,0.00
2022-12-19T04:01:02.680Z,0.00
2022-12-19T04:02:02.735Z,0.00
2022-12-19T04:03:02.633Z,0.00
2022-12-19T04:04:02.594Z,0.00
2022-12-19T04:05:02.589Z,0.00
2022-12-19T04:06:02.553Z,0.00
2022-12-19T04:07:02.523Z,0.00
2022-12-19T04:08:02.538Z,0.00
2022-12-19T04:09:02.525Z,0.00
2022-12-19T04:10:02.503Z,0.00
2022-12-19T04:11:02.527Z,0.00
2022-12-19T04:12:02.473Z,0.00
2022-12-19T04:13:02.494Z,0.00
2022-12-19T04:14:02.461Z,0.00
2022-12-19T04:15:02.471Z,0.00
2022-12-19T04:16:02.463Z,0.00
2022-12-19T04:17:02.428Z,0.00
2022-12-19T04:18:02.419Z,0.00
2022-12-19T04:19:02.393Z,0.00
2022-12-19T04:20:02.480Z,0.00
2022-12-19T04:21:02.378Z,0.00
2022-12-19T04:22:02.369Z,0.00
2022-12-19T04:23:02.350Z,0.00
2022-12-19T04:24:02.368Z,0.00
2022-12-19T04:25:02.370Z,0.00
2022-12-19T04:26:02.365Z,0.00
2022-12-19T04:27:02.326Z,0.00
2022-12-19T04:28:02.279Z,0.00
2022-12-19T04:29:02.307Z,0.00
2022-12-19T04:30:02.267Z,0.00
2022-12-19T04:31:02.357Z,0.00
2022-12-19T04:32:02.279Z,0.00
2022-12-19T04:33:02.235Z,0.00
2022-12-19T04:34:02.239Z,0.00
2022-12-19T04:35:02.212Z,0.00
2022-12-19T04:36:02.280Z,0.00
2022-12-19T04:37:02.191Z,0.00
2022-12-19T04:38:02.205Z,0.00
2022-12-19T04:39:02.190Z,0.00
2022-12-19T04:40:02.180Z,0.00
2022-12-19T04:41:02.144Z,0.00
2022-12-19T04:42:02.186Z,0.00
2022-12-19T04:43:02.114Z,0.00
2022-12-19T04:44:02.131Z,0.00
2022-12-19T04:45:02.079Z,0.00
2022-12-19T04:46:02.100Z,0.00
2022-12-19T04:47:02.081Z,0.00
2022-12-19T04:48:02.110Z,0.00
2022-12-19T04:49:02.125Z,0.00
2022-12-19T04:50:02.047Z,0.00
2022-12-19T04:51:02.057Z,0.00
2022-12-19T04:52:02.015Z,0.00
2022-12-19T04:53:02.043Z,0.00
2022-12-19T04:54:02.030Z,0.00
2022-12-19T04:55:01.973Z,0.00
2022-12-19T04:56:01.968Z,0.00
2022-12-19T04:57:01.952Z,0.00
2022-12-19T04:58:02.034Z,0.00
2022-12-19T04:59:01.942Z,0.00
2022-12-19T05:00:01.970Z,0.00
2022-12-19T05:01:01.920Z,0.00
2022-12-19T05:02:02.002Z,0.00
2022-12-19T05:03:02.107Z,0.00
2022-12-19T05:04:04.641Z,0.00
2022-12-19T05:05:01.865Z,0.00
2022-12-19T05:06:01.894Z,0.00
2022-12-19T05:07:01.847Z,0.00
2022-12-19T05:08:01.870Z,0.00
2022-12-19T05:09:01.864Z,0.00
2022-12-19T05:10:01.812Z,0.00
2022-12-19T05:11:01.806Z,0.00
2022-12-19T05:12:01.801Z,0.00
2022-12-19T05:13:01.763Z,0.00
2022-12-19T05:14:01.923Z,0.00
2022-12-19T05:15:01.742Z,0.00
2022-12-19T05:16:01.757Z,0.00
2022-12-19T05:17:01.850Z,0.00
2022-12-19T05:18:01.712Z,0.00
2022-12-19T05:19:01.699Z,0.00
2022-12-19T05:20:01.740Z,0.00
2022-12-19T05:21:01.675Z,0.00
2022-12-19T05:22:01.679Z,0.00
2022-12-19T05:23:05.043Z,0.00
2022-12-19T05:24:02.661Z,0.00
2022-12-19T05:25:01.663Z,0.00
2022-12-19T05:26:01.658Z,0.00
2022-12-19T05:27:01.615Z,0.00
2022-12-19T05:28:01.598Z,0.00
2022-12-19T05:29:01.605Z,0.00
2022-12-19T05:30:01.615Z,0.00
2022-12-19T05:31:01.592Z,0.00
2022-12-19T05:32:01.575Z,0.00
2022-12-19T05:33:01.540Z,0.00
2022-12-19T05:34:01.512Z,0.00
2022-12-19T05:35:01.540Z,0.00
2022-12-19T05:36:01.539Z,0.00
2022-12-19T05:37:01.501Z,0.00
2022-12-19T05:38:01.540Z,0.00
2022-12-19T05:39:01.484Z,0.00
2022-12-19T05:40:01.468Z,0.00
2022-12-19T05:41:01.450Z,0.00
2022-12-19T05:42:01.452Z,0.00
2022-12-19T05:43:01.433Z,0.00
2022-12-19T05:44:01.422Z,0.00
2022-12-19T05:45:01.408Z,0.00
2022-12-19T05:46:01.386Z,0.00
2022-12-19T05:47:01.447Z,0.00
2022-12-19T05:48:01.747Z,0.00
2022-12-19T05:49:01.343Z,0.00
2022-12-19T05:50:01.364Z,0.00
2022-12-19T05:51:01.347Z,0.00
2022-12-19T05:52:01.348Z,0.00
2022-12-19T05:53:01.313Z,0.00
2022-12-19T05:54:01.317Z,0.00
2022-12-19T05:55:01.292Z,0.00
2022-12-19T05:56:01.299Z,0.00
2022-12-19T05:57:01.254Z,0.00
2022-12-19T05:58:01.317Z,0.00
2022-12-19T05:59:01.222Z,0.00
2022-12-19T06:00:01.270Z,0.00
2022-12-19T06:01:01.247Z,0.00
2022-12-19T06:02:01.310Z,0.00
2022-12-19T06:03:01.281Z,0.00
2022-12-19T06:04:01.201Z,0.00
2022-12-19T06:05:01.167Z,0.00
2022-12-19T06:06:01.182Z,0.00
2022-12-19T06:07:01.168Z,0.00
2022-12-19T06:08:01.127Z,0.00
2022-12-19T06:09:01.129Z,0.00
2022-12-19T06:10:01.153Z,0.00
2022-12-19T06:11:01.132Z,0.00
2022-12-19T06:12:01.073Z,0.00
2022-12-19T06:13:01.054Z,0.00
2022-12-19T06:14:01.081Z,0.00
2022-12-19T06:15:01.060Z,0.00
2022-12-19T06:16:01.092Z,0.00
2022-12-19T06:17:01.018Z,0.00
2022-12-19T06:18:00.999Z,0.00
2022-12-19T06:19:01.019Z,0.00
2022-12-19T06:20:00.986Z,0.00
2022-12-19T06:21:00.999Z,0.00
2022-12-19T06:22:00.985Z,0.00
2022-12-19T06:23:00.977Z,0.00
2022-12-19T06:24:00.974Z,0.00
2022-12-19T06:25:00.920Z,0.00
2022-12-19T06:26:00.915Z,0.00
2022-12-19T06:27:00.961Z,0.00
2022-12-19T06:28:00.888Z,0.00
2022-12-19T06:29:00.875Z,0.00
2022-12-19T06:30:00.856Z,0.00
2022-12-19T06:31:00.859Z,0.00
2022-12-19T06:32:00.982Z,0.00
2022-12-19T06:33:00.869Z,0.00
2022-12-19T06:34:00.828Z,0.00
2022-12-19T06:35:04.750Z,0.00
2022-12-19T06:36:00.822Z,0.00
2022-12-19T06:37:05.199Z,0.00
2022-12-19T06:38:01.796Z,0.00
2022-12-19T06:39:00.772Z,4.00
2022-12-19T06:40:00.758Z,4.00
2022-12-19T06:41:00.750Z,4.00
2022-12-19T06:42:00.745Z,0.00
2022-12-19T06:43:00.707Z,0.00
2022-12-19T06:44:00.730Z,4.00
2022-12-19T06:45:00.688Z,4.00
2022-12-19T06:46:00.750Z,4.00
2022-12-19T06:47:00.730Z,4.00
2022-12-19T06:48:00.667Z,4.00
2022-12-19T06:49:00.674Z,8.00
2022-12-19T06:50:00.636Z,8.00
2022-12-19T06:51:00.618Z,8.00
2022-12-19T06:52:03.913Z,8.00
2022-12-19T06:53:01.890Z,12.00
2022-12-19T06:54:00.579Z,12.00
2022-12-19T06:55:00.599Z,16.00
2022-12-19T06:56:00.562Z,20.00
2022-12-19T06:57:00.575Z,24.00
2022-12-19T06:58:00.634Z,28.00
2022-12-19T06:59:01.061Z,32.00
2022-12-19T07:00:00.529Z,36.00
2022-12-19T07:01:00.558Z,40.00
2022-12-19T07:02:00.631Z,40.00
2022-12-19T07:03:01.441Z,48.00
2022-12-19T07:04:00.949Z,52.00
2022-12-19T07:05:00.661Z,64.00
2022-12-19T07:06:00.754Z,76.00
2022-12-19T07:07:04.129Z,84.00
2022-12-19T07:08:00.888Z,92.00
2022-12-19T07:09:00.433Z,100.00
2022-12-19T07:10:00.501Z,108.00
2022-12-19T07:11:00.548Z,120.00
2022-12-19T07:12:00.370Z,128.00
2022-12-19T07:13:00.479Z,140.00
2022-12-19T07:14:00.357Z,148.00
2022-12-19T07:15:00.360Z,156.00
2022-12-19T07:16:00.664Z,168.00
2022-12-19T07:17:00.308Z,176.00
2022-12-19T07:18:00.377Z,192.00
2022-12-19T07:19:00.321Z,208.00
2022-12-19T07:20:00.314Z,224.00
2022-12-19T07:21:00.290Z,244.00
2022-12-19T07:22:01.340Z,264.00
2022-12-19T07:23:00.634Z,284.00
2022-12-19T07:24:00.262Z,304.00
2022-12-19T07:25:00.230Z,324.00
2022-12-19T07:26:00.228Z,340.00
2022-12-19T07:27:00.251Z,360.00
2022-12-19T07:28:00.471Z,380.00
2022-12-19T07:29:00.251Z,400.00
2022-12-19T07:30:00.173Z,420.00
2022-12-19T07:31:00.145Z,444.00
2022-12-19T07:32:00.254Z,472.00
2022-12-19T07:33:00.135Z,496.00
2022-12-19T07:34:00.149Z,524.00
2022-12-19T07:35:00.153Z,552.00
2022-12-19T07:36:00.132Z,584.00
2022-12-19T07:37:00.107Z,616.00
2022-12-19T07:38:00.099Z,644.00
2022-12-19T07:39:00.115Z,676.00
2022-12-19T07:40:00.046Z,712.00
2022-12-19T07:41:00.116Z,748.00
2022-12-19T07:42:00.092Z,784.00
2022-12-19T07:43:00.022Z,820.00
2022-12-19T07:44:00.017Z,864.00
2022-12-19T07:44:59.998Z,904.00
2022-12-19T07:46:00.070Z,952.00
2022-12-19T07:46:59.995Z,996.00
2022-12-19T07:47:59.965Z,1032.00
2022-12-19T07:48:59.974Z,1072.00
2022-12-19T07:50:00.198Z,1104.00
2022-12-19T07:50:59.971Z,1140.00
2022-12-19T07:51:59.998Z,1176.00
2022-12-19T07:53:00.010Z,1208.00
2022-12-19T07:53:59.934Z,1248.00
2022-12-19T07:54:59.895Z,1288.00
2022-12-19T07:55:59.888Z,1312.00
2022-12-19T07:56:59.845Z,1336.00
2022-12-19T07:57:59.906Z,1356.00
2022-12-19T07:58:59.851Z,1388.00
2022-12-19T07:59:59.852Z,1432.00
2022-12-19T08:00:59.875Z,1496.00
2022-12-19T08:01:59.998Z,1572.00
2022-12-19T08:02:59.969Z,1660.00
2022-12-19T08:03:59.807Z,1724.00
2022-12-19T08:04:59.868Z,1688.00
2022-12-19T08:05:59.979Z,1592.00
2022-12-19T08:06:59.993Z,1520.00
2022-12-19T08:07:59.779Z,1444.00
2022-12-19T08:08:59.740Z,1380.00
2022-12-19T08:09:59.787Z,1352.00
2022-12-19T08:10:59.716Z,1356.00
2022-12-19T08:11:59.796Z,1364.00
2022-12-19T08:12:59.704Z,1372.00
2022-12-19T08:13:59.741Z,1384.00
2022-12-19T08:14:59.715Z,1376.00
2022-12-19T08:15:59.732Z,1328.00
2022-12-19T08:18:00.673Z,1264.00
2022-12-19T08:18:59.661Z,1240.00
2022-12-19T08:19:59.612Z,1232.00
2022-12-19T08:21:02.871Z,1236.00
2022-12-19T08:21:59.561Z,1248.00
2022-12-19T08:23:00.576Z,1252.00
2022-12-19T08:23:59.598Z,1228.00
2022-12-19T08:24:59.605Z,1216.00
2022-12-19T08:25:59.600Z,1244.00
2022-12-19T08:26:59.512Z,1260.00
2022-12-19T08:27:59.542Z,1312.00
2022-12-19T08:28:59.513Z,1372.00
2022-12-19T08:29:59.470Z,1464.00
2022-12-19T08:30:59.537Z,1536.00
2022-12-19T08:31:59.439Z,1580.00
2022-12-19T08:32:59.430Z,1628.00
2022-12-19T08:33:59.497Z,1680.00
2022-12-19T08:34:59.448Z,1712.00
2022-12-19T08:35:59.400Z,1740.00
2022-12-19T08:36:59.395Z,1744.00
2022-12-19T08:37:59.399Z,1760.00
2022-12-19T08:38:59.403Z,1760.00
2022-12-19T08:39:59.931Z,1804.00
2022-12-19T08:40:59.363Z,1864.00
2022-12-19T08:41:59.360Z,1884.00
2022-12-19T08:42:59.331Z,1892.00
2022-12-19T08:43:59.302Z,1924.00
2022-12-19T08:44:59.303Z,2000.00
2022-12-19T08:45:59.369Z,2068.00
2022-12-19T08:46:59.299Z,2092.00
2022-12-19T08:47:59.273Z,2184.00
2022-12-19T08:48:59.274Z,2256.00
2022-12-19T08:49:59.259Z,2304.00
2022-12-19T08:50:59.259Z,2316.00
2022-12-19T08:51:59.246Z,2292.00
2022-12-19T08:52:59.236Z,2228.00
2022-12-19T08:53:59.183Z,2156.00
2022-12-19T08:54:59.167Z,2104.00
2022-12-19T08:55:59.207Z,2080.00
2022-12-19T08:56:59.222Z,2052.00
2022-12-19T08:58:00.004Z,1992.00
2022-12-19T08:58:59.149Z,1912.00
2022-12-19T08:59:59.137Z,1868.00
2022-12-19T09:01:05.289Z,1880.00
2022-12-19T09:02:00.430Z,1916.00
2022-12-19T09:02:59.264Z,1964.00
2022-12-19T09:05:40.656Z,2040.00
2022-12-19T09:06:01.392Z,2164.00
2022-12-19T09:06:07.046Z,2256.00
2022-12-19T09:07:00.035Z,2360.00
2022-12-19T09:07:59.050Z,2444.00
2022-12-19T09:09:00.099Z,2560.00
2022-12-19T09:09:59.016Z,2668.00
2022-12-19T09:10:58.986Z,2780.00
2022-12-19T09:11:58.970Z,2888.00
2022-12-19T09:12:59.011Z,2988.00
2022-12-19T09:13:59.009Z,3012.00
2022-12-19T09:14:58.944Z,2972.00
2022-12-19T09:15:58.957Z,2872.00
2022-12-19T09:16:59.156Z,2820.00
2022-12-19T09:17:58.944Z,2800.00
2022-12-19T09:18:59.001Z,2772.00
2022-12-19T09:19:58.911Z,2732.00
2022-12-19T09:20:58.898Z,2700.00
2022-12-19T09:21:58.893Z,2644.00
2022-12-19T09:22:58.889Z,2596.00
2022-12-19T09:24:05.368Z,2548.00
2022-12-19T09:24:59.860Z,2500.00
2022-12-19T09:25:58.833Z,2404.00
2022-12-19T09:26:58.840Z,2336.00
2022-12-19T09:28:26.931Z,2316.00
2022-12-19T09:28:59.842Z,2364.00
2022-12-19T09:29:58.784Z,2444.00
2022-12-19T09:30:58.832Z,2448.00
2022-12-19T09:31:58.742Z,2360.00
2022-12-19T09:32:58.761Z,2240.00
2022-12-19T09:33:58.723Z,2208.00
2022-12-19T09:34:58.731Z,2272.00
2022-12-19T09:35:58.711Z,2368.00
2022-12-19T09:36:58.744Z,2460.00
2022-12-19T09:38:00.571Z,2516.00
2022-12-19T09:38:59.050Z,2536.00
2022-12-19T09:39:59.221Z,2564.00
2022-12-19T09:40:58.641Z,2584.00
2022-12-19T09:41:58.648Z,2560.00
2022-12-19T09:42:58.655Z,2540.00
2022-12-19T09:43:58.643Z,2516.00
2022-12-19T09:44:58.608Z,2476.00
2022-12-19T09:45:58.655Z,2428.00
2022-12-19T09:46:58.588Z,2380.00
2022-12-19T09:47:58.588Z,2316.00
2022-12-19T09:48:58.569Z,2252.00
2022-12-19T09:49:58.820Z,2220.00
2022-12-19T09:51:09.942Z,2240.00
2022-12-19T09:51:59.569Z,2320.00
2022-12-19T09:52:58.545Z,2388.00
2022-12-19T09:53:58.540Z,2468.00
2022-12-19T09:54:58.501Z,2468.00
2022-12-19T09:55:58.488Z,2448.00
2022-12-19T09:56:58.499Z,2496.00
2022-12-19T09:57:58.492Z,2584.00
2022-12-19T09:58:58.462Z,2660.00
2022-12-19T09:59:58.460Z,2700.00
2022-12-19T10:00:59.974Z,2700.00
2022-12-19T10:01:58.463Z,2640.00
2022-12-19T10:02:58.603Z,2556.00
2022-12-19T10:03:58.411Z,2488.00
2022-12-19T10:05:01.699Z,2488.00
2022-12-19T10:07:12.404Z,2500.00
2022-12-19T10:07:22.190Z,2512.00
2022-12-19T10:08:08.580Z,2520.00
2022-12-19T10:10:33.825Z,2536.00
2022-12-19T10:12:33.436Z,2552.00
2022-12-19T10:12:41.098Z,2592.00
2022-12-19T10:12:43.318Z,2636.00
2022-12-19T10:12:59.799Z,2696.00
2022-12-19T10:13:58.288Z,2728.00
2022-12-19T10:14:58.280Z,2756.00
2022-12-19T10:16:00.276Z,2804.00
2022-12-19T10:17:23.121Z,2860.00
2022-12-19T10:17:59.230Z,2884.00
2022-12-19T10:18:58.201Z,2892.00
2022-12-19T10:19:58.245Z,2880.00
2022-12-19T10:20:58.227Z,2892.00
2022-12-19T10:22:59.162Z,2888.00
2022-12-19T10:23:58.176Z,2908.00
2022-12-19T10:25:09.393Z,2944.00
2022-12-19T10:25:59.121Z,2984.00
2022-12-19T10:26:58.531Z,3000.00
2022-12-19T10:27:59.323Z,2992.00
2022-12-19T10:28:58.127Z,3012.00
2022-12-19T10:29:58.107Z,3104.00
2022-12-19T10:30:59.676Z,3268.00
2022-12-19T10:31:58.163Z,3400.00
2022-12-19T10:32:58.414Z,3572.00
2022-12-19T10:33:58.065Z,3704.00
2022-12-19T10:34:58.025Z,3772.00
2022-12-19T10:36:01.844Z,3824.00
2022-12-19T10:37:25.627Z,3880.00
2022-12-19T10:37:58.976Z,3964.00
2022-12-19T10:38:58.086Z,4052.00
2022-12-19T10:39:57.991Z,4076.00
2022-12-19T10:40:57.964Z,4124.00
2022-12-19T10:41:57.987Z,4168.00
2022-12-19T10:42:57.958Z,4120.00
2022-12-19T10:43:57.938Z,4080.00
2022-12-19T10:44:57.928Z,3984.00
2022-12-19T10:45:57.974Z,3884.00
2022-12-19T10:46:57.955Z,3780.00
2022-12-19T10:47:57.895Z,3660.00
2022-12-19T10:48:57.877Z,3416.00
2022-12-19T10:49:59.541Z,3152.00
2022-12-19T10:50:57.895Z,3180.00
2022-12-19T10:51:57.852Z,3252.00
2022-12-19T10:52:57.825Z,3296.00
2022-12-19T10:53:57.807Z,3268.00
2022-12-19T10:54:57.843Z,3236.00
2022-12-19T10:55:57.836Z,3224.00
2022-12-19T10:56:57.762Z,3192.00
2022-12-19T10:57:57.819Z,3236.00
2022-12-19T10:58:57.746Z,3320.00
2022-12-19T10:59:57.754Z,3484.00
2022-12-19T11:00:57.739Z,3672.00
2022-12-19T11:02:01.214Z,3740.00
2022-12-19T11:02:57.827Z,3672.00
2022-12-19T11:03:57.720Z,3404.00
2022-12-19T11:04:57.795Z,2976.00
2022-12-19T11:05:58.711Z,2624.00
2022-12-19T11:06:57.658Z,2456.00
2022-12-19T11:07:57.717Z,2404.00
2022-12-19T11:08:57.624Z,2404.00
2022-12-19T11:10:40.905Z,2552.00
2022-12-19T11:12:03.944Z,2788.00
2022-12-19T11:16:18.656Z,3024.00
2022-12-19T11:17:42.880Z,3224.00
2022-12-19T11:19:08.956Z,3348.00
2022-12-19T11:19:20.706Z,3468.00
2022-12-19T11:22:16.938Z,3476.00
2022-12-19T11:22:22.769Z,3388.00
2022-12-19T11:27:16.232Z,3316.00
2022-12-19T11:27:51.974Z,3316.00
2022-12-19T11:29:17.341Z,3272.00
2022-12-19T11:29:19.698Z,3164.00
2022-12-19T11:29:31.408Z,3224.00
2022-12-19T11:29:34.226Z,3316.00
2022-12-19T11:29:44.970Z,3412.00
2022-12-19T11:29:45.795Z,3452.00
2022-12-19T11:30:05.417Z,3164.00
2022-12-19T11:30:40.811Z,3376.00
2022-12-19T11:30:43.363Z,3476.00
2022-12-19T11:30:47.827Z,3388.00
2022-12-19T11:31:49.889Z,3456.00
2022-12-19T11:32:38.678Z,3296.00
2022-12-19T11:32:58.418Z,3220.00
2022-12-19T11:33:57.424Z,3192.00
2022-12-19T11:34:57.361Z,3172.00
2022-12-19T11:35:57.325Z,3136.00
2022-12-19T11:36:57.318Z,3164.00
2022-12-19T11:37:57.321Z,3216.00
2022-12-19T11:38:57.313Z,3264.00
2022-12-19T11:39:57.260Z,3304.00
2022-12-19T11:40:57.296Z,3380.00
2022-12-19T11:41:57.253Z,3416.00
2022-12-19T11:43:33.889Z,3292.00
2022-12-19T11:43:58.221Z,3144.00
2022-12-19T11:44:57.209Z,3024.00
2022-12-19T11:45:57.230Z,2880.00
2022-12-19T11:46:57.206Z,2760.00
2022-12-19T11:47:57.176Z,2712.00
2022-12-19T11:48:57.300Z,2664.00
2022-12-19T11:49:57.144Z,2664.00
2022-12-19T11:51:00.194Z,2612.00
2022-12-19T11:51:57.132Z,2600.00
2022-12-19T11:53:07.752Z,2588.00
2022-12-19T11:53:58.148Z,2532.00
2022-12-19T11:54:57.115Z,2508.00
2022-12-19T11:55:57.118Z,2480.00
2022-12-19T11:56:57.079Z,2484.00
2022-12-19T11:57:57.070Z,2648.00
2022-12-19T11:58:57.058Z,2740.00
2022-12-19T12:00:02.969Z,2736.00
2022-12-19T12:00:58.025Z,2800.00
2022-12-19T12:01:57.120Z,2828.00
2022-12-19T12:02:57.080Z,2876.00
2022-12-19T12:04:02.270Z,2948.00
2022-12-19T12:04:58.052Z,2984.00
2022-12-19T12:05:57.006Z,2952.00
2022-12-19T12:06:57.783Z,2912.00
2022-12-19T12:09:30.402Z,2808.00
2022-12-19T12:11:20.740Z,2672.00
2022-12-19T12:12:06.963Z,2560.00
2022-12-19T12:17:42.706Z,2500.00
2022-12-19T12:20:24.821Z,2596.00
2022-12-19T12:21:39.530Z,3060.00
2022-12-19T12:22:26.567Z,2868.00
2022-12-19T12:24:17.620Z,3080.00
2022-12-19T12:24:40.706Z,3028.00
2022-12-19T12:25:59.694Z,2944.00
2022-12-19T12:31:05.151Z,2888.00
2022-12-19T12:31:13.553Z,2980.00
2022-12-19T12:31:15.524Z,3056.00
2022-12-19T12:31:16.751Z,2920.00
2022-12-19T12:31:26.161Z,3036.00
2022-12-19T12:31:26.819Z,3080.00
2022-12-19T12:31:47.732Z,3108.00
2022-12-19T12:31:51.388Z,3224.00
2022-12-19T12:31:51.725Z,3104.00
2022-12-19T12:31:58.649Z,3340.00
2022-12-19T12:32:02.521Z,3080.00
2022-12-19T12:32:03.000Z,3248.00
2022-12-19T12:32:04.827Z,3144.00
2022-12-19T12:35:09.296Z,3460.00
2022-12-19T12:35:41.439Z,3428.00
2022-12-19T12:35:48.782Z,3336.00
2022-12-19T12:35:51.814Z,3468.00
2022-12-19T12:35:56.941Z,3484.00
2022-12-19T12:38:28.494Z,3124.00
2022-12-19T12:39:56.710Z,3132.00
2022-12-19T12:40:56.564Z,3128.00
2022-12-19T12:41:56.560Z,3080.00
2022-12-19T12:42:56.591Z,3040.00
2022-12-19T12:43:56.528Z,3024.00
2022-12-19T12:44:56.550Z,3008.00
2022-12-19T12:45:56.550Z,2972.00
2022-12-19T12:46:56.532Z,2900.00
2022-12-19T12:47:56.505Z,2868.00
2022-12-19T12:48:56.484Z,2960.00
2022-12-19T12:49:56.501Z,3068.00
2022-12-19T12:50:56.459Z,3160.00